sensor_id;sensor_type;location;lat;lon;timestamp;pressure;altitude;pressure_sealevel;temperature;humidity
62976;BME280;49071;0.000;0.000;2023-05-08T05:16:15;102194.66;;;18.11;43.99
62976;BME280;49071;0.000;0.000;2023-05-08T05:19:16;102193.41;;;18.26;43.80
62976;BME280;49071;0.000;0.000;2023-05-08T05:22:16;102193.84;;;18.45;43.48
62976;BME280;49071;0.000;0.000;2023-05-08T05:25:16;102193.41;;;18.63;42.66
62976;BME280;49071;0.000;0.000;2023-05-08T05:28:16;102201.78;;;18.79;42.37
62976;BME280;49071;0.000;0.000;2023-05-08T05:31:16;102203.94;;;18.97;42.51
62976;BME280;49071;0.000;0.000;2023-05-08T05:34:16;102212.22;;;18.82;43.09
62976;BME280;49071;0.000;0.000;2023-05-08T05:37:17;102210.25;;;18.90;42.96
62976;BME280;49071;0.000;0.000;2023-05-08T05:40:17;102205.50;;;19.04;42.55
62976;BME280;49071;0.000;0.000;2023-05-08T05:43:17;102204.53;;;19.69;41.65
62976;BME280;49071;0.000;0.000;2023-05-08T05:46:17;102203.25;;;20.39;39.75
62976;BME280;49071;0.000;0.000;2023-05-08T05:49:18;102203.53;;;19.73;41.18
62976;BME280;49071;0.000;0.000;2023-05-08T05:52:18;102208.25;;;19.61;41.68
62976;BME280;49071;0.000;0.000;2023-05-08T05:55:18;102208.25;;;19.61;41.55
62976;BME280;49071;0.000;0.000;2023-05-08T05:58:18;102202.94;;;19.64;41.43
62976;BME280;49071;0.000;0.000;2023-05-08T06:01:19;102208.19;;;19.65;41.48
62976;BME280;49071;0.000;0.000;2023-05-08T06:04:19;102199.34;;;19.68;41.80
62976;BME280;49071;0.000;0.000;2023-05-08T06:07:19;102207.25;;;19.66;42.07
62976;BME280;49071;0.000;0.000;2023-05-08T06:10:20;102204.41;;;19.74;41.58
62976;BME280;49071;0.000;0.000;2023-05-08T06:13:20;102206.06;;;19.76;41.68
62976;BME280;49071;0.000;0.000;2023-05-08T06:16:20;102203.41;;;19.78;41.61
62976;BME280;49071;0.000;0.000;2023-05-08T06:19:22;102206.06;;;19.78;42.00
62976;BME280;49071;0.000;0.000;2023-05-08T06:22:23;102209.56;;;19.77;41.45
62976;BME280;49071;0.000;0.000;2023-05-08T06:25:24;102210.63;;;19.71;41.49
62976;BME280;49071;0.000;0.000;2023-05-08T06:28:27;102213.16;;;24.06;32.96
62976;BME280;49071;0.000;0.000;2023-05-08T06:31:27;102214.84;;;24.25;31.54
62976;BME280;49071;0.000;0.000;2023-05-08T06:34:27;102211.75;;;21.00;38.20
62976;BME280;49071;0.000;0.000;2023-05-08T06:37:27;102205.44;;;20.24;40.09
62976;BME280;49071;0.000;0.000;2023-05-08T06:40:27;102202.59;;;20.04;40.46
62976;BME280;49071;0.000;0.000;2023-05-08T06:43:28;102202.91;;;19.95;40.64
62976;BME280;49071;0.000;0.000;2023-05-08T06:46:29;102203.00;;;19.92;40.84
62976;BME280;49071;0.000;0.000;2023-05-08T06:49:30;102213.66;;;19.87;40.83
62976;BME280;49071;0.000;0.000;2023-05-08T06:52:31;102207.59;;;19.85;40.63
62976;BME280;49071;0.000;0.000;2023-05-08T06:55:32;102200.69;;;19.81;40.79
62976;BME280;49071;0.000;0.000;2023-05-08T06:58:32;102207.78;;;19.77;41.07
62976;BME280;49071;0.000;0.000;2023-05-08T07:01:32;102213.22;;;19.73;40.97
62976;BME280;49071;0.000;0.000;2023-05-08T07:04:32;102204.59;;;19.68;40.77
62976;BME280;49071;0.000;0.000;2023-05-08T07:07:32;102203.81;;;19.63;41.01
62976;BME280;49071;0.000;0.000;2023-05-08T07:10:33;102201.44;;;19.55;41.32
62976;BME280;49071;0.000;0.000;2023-05-08T07:13:33;102200.66;;;19.51;41.44
62976;BME280;49071;0.000;0.000;2023-05-08T07:16:33;102197.25;;;19.48;41.35
62976;BME280;49071;0.000;0.000;2023-05-08T07:19:34;102199.06;;;19.46;41.34
62976;BME280;49071;0.000;0.000;2023-05-08T07:22:35;102193.03;;;19.42;41.22
62976;BME280;49071;0.000;0.000;2023-05-08T07:25:35;102204.50;;;19.40;41.46
62976;BME280;49071;0.000;0.000;2023-05-08T07:28:35;102209.84;;;19.37;41.31
62976;BME280;49071;0.000;0.000;2023-05-08T07:31:37;102213.47;;;19.32;41.28
62976;BME280;49071;0.000;0.000;2023-05-08T07:34:37;102214.41;;;19.30;41.38
62976;BME280;49071;0.000;0.000;2023-05-08T07:37:38;102210.97;;;19.28;41.34
62976;BME280;49071;0.000;0.000;2023-05-08T07:40:38;102213.63;;;19.26;41.69
62976;BME280;49071;0.000;0.000;2023-05-08T07:43:38;102211.16;;;19.22;41.65
62976;BME280;49071;0.000;0.000;2023-05-08T07:46:38;102212.91;;;19.21;41.30
62976;BME280;49071;0.000;0.000;2023-05-08T07:49:39;102210.31;;;19.20;41.47
62976;BME280;49071;0.000;0.000;2023-05-08T07:52:39;102207.75;;;19.18;41.56
62976;BME280;49071;0.000;0.000;2023-05-08T07:55:39;102213.91;;;19.17;41.50
62976;BME280;49071;0.000;0.000;2023-05-08T07:58:40;102212.16;;;19.16;41.57
62976;BME280;49071;0.000;0.000;2023-05-08T08:01:41;102221.03;;;19.14;41.42
62976;BME280;49071;0.000;0.000;2023-05-08T08:04:46;102212.25;;;19.13;41.58
62976;BME280;49071;0.000;0.000;2023-05-08T08:07:46;102214.03;;;19.13;41.57
62976;BME280;49071;0.000;0.000;2023-05-08T08:10:46;102214.94;;;19.11;41.11
62976;BME280;49071;0.000;0.000;2023-05-08T08:13:46;102203.56;;;19.11;41.33
62976;BME280;49071;0.000;0.000;2023-05-08T08:16:46;102201.88;;;19.08;41.36
62976;BME280;49071;0.000;0.000;2023-05-08T08:19:46;102201.91;;;19.07;41.39
62976;BME280;49071;0.000;0.000;2023-05-08T08:22:47;102201.94;;;19.05;41.05
62976;BME280;49071;0.000;0.000;2023-05-08T08:25:47;102208.13;;;19.04;41.24
62976;BME280;49071;0.000;0.000;2023-05-08T08:28:48;102209.88;;;19.04;40.87
62976;BME280;49071;0.000;0.000;2023-05-08T08:31:48;102211.75;;;18.99;40.85
62976;BME280;49071;0.000;0.000;2023-05-08T08:34:48;102211.75;;;19.00;40.92
62976;BME280;49071;0.000;0.000;2023-05-08T08:37:48;102218.75;;;19.00;40.95
62976;BME280;49071;0.000;0.000;2023-05-08T08:40:49;102212.63;;;18.99;40.78
62976;BME280;49071;0.000;0.000;2023-05-08T08:43:49;102216.09;;;19.00;40.98
62976;BME280;49071;0.000;0.000;2023-05-08T08:46:50;102208.22;;;19.00;40.96
62976;BME280;49071;0.000;0.000;2023-05-08T08:49:50;102210.06;;;18.98;40.87
62976;BME280;49071;0.000;0.000;2023-05-08T08:55:53;102222.34;;;18.97;41.00
62976;BME280;49071;0.000;0.000;2023-05-08T08:58:56;102212.69;;;18.96;41.03
62976;BME280;49071;0.000;0.000;2023-05-08T09:02:00;102211.84;;;18.96;41.18
62976;BME280;49071;0.000;0.000;2023-05-08T09:05:04;102208.41;;;18.94;41.06
62976;BME280;49071;0.000;0.000;2023-05-08T09:08:05;102210.13;;;18.95;40.99
62976;BME280;49071;0.000;0.000;2023-05-08T09:11:06;102202.25;;;18.95;41.26
62976;BME280;49071;0.000;0.000;2023-05-08T09:14:06;102203.16;;;18.94;40.81
62976;BME280;49071;0.000;0.000;2023-05-08T09:17:08;102205.84;;;18.91;40.83
62976;BME280;49071;0.000;0.000;2023-05-08T09:20:08;102205.03;;;18.88;40.84
62976;BME280;49071;0.000;0.000;2023-05-08T09:23:09;102206.78;;;18.88;40.76
62976;BME280;49071;0.000;0.000;2023-05-08T09:26:09;102206.88;;;18.85;40.75
62976;BME280;49071;0.000;0.000;2023-05-08T09:29:16;102198.13;;;18.84;40.82
62976;BME280;49071;0.000;0.000;2023-05-08T09:32:17;102205.16;;;18.84;41.01
62976;BME280;49071;0.000;0.000;2023-05-08T09:35:17;102191.16;;;18.83;40.84
62976;BME280;49071;0.000;0.000;2023-05-08T09:38:36;102202.56;;;18.82;40.79
62976;BME280;49071;0.000;0.000;2023-05-08T09:41:37;102195.59;;;18.81;40.67
62976;BME280;49071;0.000;0.000;2023-05-08T09:44:51;102190.41;;;18.78;41.03
62976;BME280;49071;0.000;0.000;2023-05-08T09:47:51;102188.69;;;18.77;40.95
62976;BME280;49071;0.000;0.000;2023-05-08T09:51:03;102179.97;;;18.75;41.06
62976;BME280;49071;0.000;0.000;2023-05-08T09:54:04;102194.00;;;18.74;40.70
62976;BME280;49071;0.000;0.000;2023-05-08T09:57:15;102181.78;;;18.73;41.06
62976;BME280;49071;0.000;0.000;2023-05-08T10:00:16;102171.28;;;18.72;40.79
62976;BME280;49071;0.000;0.000;2023-05-08T10:03:16;102167.75;;;18.73;40.60
62976;BME280;49071;0.000;0.000;2023-05-08T10:06:16;102166.91;;;18.71;40.70
62976;BME280;49071;0.000;0.000;2023-05-08T10:09:16;102166.06;;;18.70;40.50
62976;BME280;49071;0.000;0.000;2023-05-08T10:12:17;102181.00;;;18.68;40.85
62976;BME280;49071;0.000;0.000;2023-05-08T10:15:17;102173.09;;;18.68;40.60
62976;BME280;49071;0.000;0.000;2023-05-08T10:18:18;102172.25;;;18.68;40.69
62976;BME280;49071;0.000;0.000;2023-05-08T10:21:20;102165.31;;;18.65;40.59
62976;BME280;49071;0.000;0.000;2023-05-08T10:24:25;102159.19;;;18.64;40.86
62976;BME280;49071;0.000;0.000;2023-05-08T10:27:27;102157.50;;;18.62;41.00
62976;BME280;49071;0.000;0.000;2023-05-08T10:30:30;102155.78;;;18.61;40.68
62976;BME280;49071;0.000;0.000;2023-05-08T10:33:33;102142.66;;;18.59;40.80
62976;BME280;49071;0.000;0.000;2023-05-08T10:36:33;102134.84;;;18.58;40.59
62976;BME280;49071;0.000;0.000;2023-05-08T10:39:34;102141.88;;;18.56;40.84
62976;BME280;49071;0.000;0.000;2023-05-08T10:42:35;102134.91;;;18.55;40.78
62976;BME280;49071;0.000;0.000;2023-05-08T10:45:35;102132.34;;;18.53;40.60
62976;BME280;49071;0.000;0.000;2023-05-08T10:55:18;102128.94;;;18.48;40.41
62976;BME280;49071;0.000;0.000;2023-05-08T11:01:22;102118.53;;;18.45;40.68
62976;BME280;49071;0.000;0.000;2023-05-08T11:04:23;102122.06;;;18.44;40.54
62976;BME280;49071;0.000;0.000;2023-05-08T11:08:13;102114.19;;;18.42;40.36
62976;BME280;49071;0.000;0.000;2023-05-08T11:10:48;102120.38;;;18.41;40.64
62976;BME280;49071;0.000;0.000;2023-05-08T11:13:55;102112.53;;;18.40;40.64
62976;BME280;49071;0.000;0.000;2023-05-08T11:19:59;102113.47;;;18.37;40.58
62976;BME280;49071;0.000;0.000;2023-05-08T11:23:00;102094.25;;;18.35;40.25
62976;BME280;49071;0.000;0.000;2023-05-08T11:26:20;102103.03;;;18.34;40.37
62976;BME280;49071;0.000;0.000;2023-05-08T11:29:20;102094.31;;;18.32;40.24
62976;BME280;49071;0.000;0.000;2023-05-08T11:32:21;102100.50;;;18.31;40.57
62976;BME280;49071;0.000;0.000;2023-05-08T11:38:44;102090.97;;;18.27;40.24
62976;BME280;49071;0.000;0.000;2023-05-08T11:45:22;102094.59;;;18.23;40.15
62976;BME280;49071;0.000;0.000;2023-05-08T11:48:22;102089.34;;;18.22;40.32
62976;BME280;49071;0.000;0.000;2023-05-08T11:51:23;102098.16;;;18.21;40.32
62976;BME280;49071;0.000;0.000;2023-05-08T11:54:24;102096.44;;;18.20;40.31
62976;BME280;49071;0.000;0.000;2023-05-08T11:57:24;102085.09;;;18.17;40.35
62976;BME280;49071;0.000;0.000;2023-05-08T12:00:25;102082.50;;;18.16;40.45
62976;BME280;49071;0.000;0.000;2023-05-08T12:03:26;102079.88;;;18.16;40.57
62976;BME280;49071;0.000;0.000;2023-05-08T12:06:26;102086.88;;;18.15;40.33
62976;BME280;49071;0.000;0.000;2023-05-08T12:09:27;102072.94;;;18.13;40.29
62976;BME280;49071;0.000;0.000;2023-05-08T12:12:40;102087.00;;;18.11;40.41
62976;BME280;49071;0.000;0.000;2023-05-08T12:15:41;102083.53;;;18.09;40.17
62976;BME280;49071;0.000;0.000;2023-05-08T12:18:41;102091.41;;;18.09;40.26
62976;BME280;49071;0.000;0.000;2023-05-08T12:21:46;102091.53;;;18.04;38.72
62976;BME280;49071;0.000;0.000;2023-05-08T12:24:47;102088.91;;;18.06;39.64
62976;BME280;49071;0.000;0.000;2023-05-08T12:27:47;102077.50;;;18.05;39.75
62976;BME280;49071;0.000;0.000;2023-05-08T12:30:48;102088.00;;;18.05;39.87
62976;BME280;49071;0.000;0.000;2023-05-08T12:33:48;102080.25;;;18.01;38.39
62976;BME280;49071;0.000;0.000;2023-05-08T12:36:56;102080.22;;;18.02;39.43
62976;BME280;49071;0.000;0.000;2023-05-08T12:40:00;102064.47;;;18.02;39.53
62976;BME280;49071;0.000;0.000;2023-05-08T12:43:00;102075.88;;;18.01;39.66
62976;BME280;49071;0.000;0.000;2023-05-08T12:46:02;102073.28;;;18.00;39.53
62976;BME280;49071;0.000;0.000;2023-05-08T12:49:02;102075.06;;;17.99;39.86
62976;BME280;49071;0.000;0.000;2023-05-08T12:52:06;102074.16;;;17.99;39.90
62976;BME280;49071;0.000;0.000;2023-05-08T12:55:48;102071.53;;;17.99;39.89
62976;BME280;49071;0.000;0.000;2023-05-08T12:58:33;102070.75;;;17.97;40.11
62976;BME280;49071;0.000;0.000;2023-05-08T13:01:33;102069.88;;;17.96;40.02
62976;BME280;49071;0.000;0.000;2023-05-08T13:04:37;102068.13;;;17.95;40.15
62976;BME280;49071;0.000;0.000;2023-05-08T13:07:37;102058.53;;;17.96;40.02
62976;BME280;49071;0.000;0.000;2023-05-08T13:10:44;102063.78;;;17.96;40.05
62976;BME280;49071;0.000;0.000;2023-05-08T13:13:45;102058.53;;;17.96;40.36
62976;BME280;49071;0.000;0.000;2023-05-08T13:16:45;102056.78;;;17.94;40.43
62976;BME280;49071;0.000;0.000;2023-05-08T13:19:46;102048.03;;;17.94;40.35
62976;BME280;49071;0.000;0.000;2023-05-08T13:22:46;102043.66;;;17.94;40.50
62976;BME280;49071;0.000;0.000;2023-05-08T13:25:47;102046.28;;;17.94;40.63
62976;BME280;49071;0.000;0.000;2023-05-08T13:28:47;102041.94;;;17.93;40.55
62976;BME280;49071;0.000;0.000;2023-05-08T13:31:47;102040.22;;;17.92;40.70
62976;BME280;49071;0.000;0.000;2023-05-08T13:34:47;102037.63;;;17.91;40.41
62976;BME280;49071;0.000;0.000;2023-05-08T13:37:47;102043.78;;;17.90;40.75
62976;BME280;49071;0.000;0.000;2023-05-08T13:40:48;102038.53;;;17.90;40.17
62976;BME280;49071;0.000;0.000;2023-05-08T13:43:48;102038.53;;;17.88;40.46
62976;BME280;49071;0.000;0.000;2023-05-08T13:46:48;102028.09;;;17.87;40.45
62976;BME280;49071;0.000;0.000;2023-05-08T13:49:49;102027.25;;;17.86;40.30
62976;BME280;49071;0.000;0.000;2023-05-08T13:52:49;102019.38;;;17.86;40.18
62976;BME280;49071;0.000;0.000;2023-05-08T13:55:49;102027.25;;;17.85;40.38
62976;BME280;49071;0.000;0.000;2023-05-08T13:58:49;102017.66;;;17.85;40.21
62976;BME280;49071;0.000;0.000;2023-05-08T14:01:50;102008.03;;;17.84;40.36
62976;BME280;49071;0.000;0.000;2023-05-08T14:04:51;101997.53;;;17.84;40.07
62976;BME280;49071;0.000;0.000;2023-05-08T14:07:51;101997.59;;;17.83;40.48
62976;BME280;49071;0.000;0.000;2023-05-08T14:10:51;101998.44;;;17.83;40.29
62976;BME280;49071;0.000;0.000;2023-05-08T14:13:51;101997.59;;;17.83;40.37
62976;BME280;49071;0.000;0.000;2023-05-08T14:16:52;102002.84;;;17.81;40.40
62976;BME280;49071;0.000;0.000;2023-05-08T14:19:52;102002.84;;;17.81;40.35
62976;BME280;49071;0.000;0.000;2023-05-08T14:22:52;101997.66;;;17.80;40.44
62976;BME280;49071;0.000;0.000;2023-05-08T14:25:52;101994.19;;;17.79;40.46
62976;BME280;49071;0.000;0.000;2023-05-08T14:28:53;101995.97;;;17.77;40.49
62976;BME280;49071;0.000;0.000;2023-05-08T14:31:53;101987.25;;;17.77;40.28
62976;BME280;49071;0.000;0.000;2023-05-08T14:34:53;101988.09;;;17.77;40.44
62976;BME280;49071;0.000;0.000;2023-05-08T14:37:53;101987.25;;;17.77;40.58
62976;BME280;49071;0.000;0.000;2023-05-08T14:40:53;101979.38;;;17.75;40.40
62976;BME280;49071;0.000;0.000;2023-05-08T14:43:53;101980.25;;;17.76;40.27
62976;BME280;49071;0.000;0.000;2023-05-08T14:46:54;101980.25;;;17.76;40.47
62976;BME280;49071;0.000;0.000;2023-05-08T14:49:54;101974.13;;;17.75;40.63
62976;BME280;49071;0.000;0.000;2023-05-08T14:52:54;101975.88;;;17.75;40.78
62976;BME280;49071;0.000;0.000;2023-05-08T14:55:54;101977.63;;;17.74;40.66
62976;BME280;49071;0.000;0.000;2023-05-08T14:58:55;101968.06;;;17.73;40.63
62976;BME280;49071;0.000;0.000;2023-05-08T15:01:55;101977.84;;;17.66;38.74
62976;BME280;49071;0.000;0.000;2023-05-08T15:04:55;101975.13;;;17.69;40.48
62976;BME280;49071;0.000;0.000;2023-05-08T15:07:55;101972.47;;;17.71;40.54
62976;BME280;49071;0.000;0.000;2023-05-08T15:10:56;101961.97;;;17.71;40.87
62976;BME280;49071;0.000;0.000;2023-05-08T15:13:56;101965.38;;;17.76;40.76
62976;BME280;49071;0.000;0.000;2023-05-08T15:16:57;101962.53;;;17.85;40.44
62976;BME280;49071;0.000;0.000;2023-05-08T15:19:57;101958.75;;;17.96;40.51
62976;BME280;49071;0.000;0.000;2023-05-08T15:22:58;101958.31;;;18.12;40.01
62976;BME280;49071;0.000;0.000;2023-05-08T15:25:58;101960.47;;;18.29;39.56
62976;BME280;49071;0.000;0.000;2023-05-08T15:28:58;101952.91;;;18.48;39.45
62976;BME280;49071;0.000;0.000;2023-05-08T15:31:58;101961.09;;;18.69;39.04
62976;BME280;49071;0.000;0.000;2023-05-08T15:34:58;101955.31;;;18.87;38.61
62976;BME280;49071;0.000;0.000;2023-05-08T15:37:58;101951.19;;;19.06;38.00
62976;BME280;49071;0.000;0.000;2023-05-08T15:41:03;101946.31;;;19.22;38.21
62976;BME280;49071;0.000;0.000;2023-05-08T15:44:04;101954.97;;;19.26;38.35
62976;BME280;49071;0.000;0.000;2023-05-08T15:47:04;101951.44;;;19.27;38.00
62976;BME280;49071;0.000;0.000;2023-05-08T15:50:05;101952.31;;;19.27;38.13
62976;BME280;49071;0.000;0.000;2023-05-08T15:53:05;101947.09;;;19.26;38.20
62976;BME280;49071;0.000;0.000;2023-05-08T15:56:05;101945.41;;;19.23;37.96
62976;BME280;49071;0.000;0.000;2023-05-08T15:59:05;101942.88;;;19.20;38.16
62976;BME280;49071;0.000;0.000;2023-05-08T16:02:06;101943.84;;;19.18;38.41
62976;BME280;49071;0.000;0.000;2023-05-08T16:05:06;101941.25;;;19.16;38.47
62976;BME280;49071;0.000;0.000;2023-05-08T16:08:07;101936.16;;;19.11;38.37
62976;BME280;49071;0.000;0.000;2023-05-08T16:11:11;101935.38;;;19.08;38.48
62976;BME280;49071;0.000;0.000;2023-05-08T16:14:11;101933.69;;;19.07;38.11
62976;BME280;49071;0.000;0.000;2023-05-08T16:17:11;101926.75;;;19.04;38.22
62976;BME280;49071;0.000;0.000;2023-05-08T16:20:11;101924.22;;;19.00;38.63
62976;BME280;49071;0.000;0.000;2023-05-08T16:23:12;101922.50;;;19.00;38.45
62976;BME280;49071;0.000;0.000;2023-05-08T16:26:13;101920.81;;;18.98;38.12
62976;BME280;49071;0.000;0.000;2023-05-08T16:29:15;101922.63;;;18.96;38.27
62976;BME280;49071;0.000;0.000;2023-05-08T16:32:15;101920.84;;;18.96;38.66
62976;BME280;49071;0.000;0.000;2023-05-08T16:35:15;101920.00;;;18.96;38.78
62976;BME280;49071;0.000;0.000;2023-05-08T16:38:16;101928.72;;;18.96;38.93
62976;BME280;49071;0.000;0.000;2023-05-08T16:41:16;101926.09;;;18.96;38.96
62976;BME280;49071;0.000;0.000;2023-05-08T16:44:16;101920.03;;;18.94;38.84
62976;BME280;49071;0.000;0.000;2023-05-08T16:47:16;101924.44;;;18.94;39.22
62976;BME280;49071;0.000;0.000;2023-05-08T16:50:16;101931.44;;;18.93;39.25
62976;BME280;49071;0.000;0.000;2023-05-08T16:53:17;101923.69;;;18.90;39.24
62976;BME280;49071;0.000;0.000;2023-05-08T16:56:17;101929.84;;;18.89;39.52
62976;BME280;49071;0.000;0.000;2023-05-08T16:59:17;101931.66;;;18.87;39.19
62976;BME280;49071;0.000;0.000;2023-05-08T17:02:17;101930.78;;;18.86;39.39
62976;BME280;49071;0.000;0.000;2023-05-08T17:05:17;101927.34;;;18.84;39.43
62976;BME280;49071;0.000;0.000;2023-05-08T17:08:18;101924.81;;;18.81;39.59
62976;BME280;49071;0.000;0.000;2023-05-08T17:11:18;101920.50;;;18.79;40.09
62976;BME280;49071;0.000;0.000;2023-05-08T17:14:18;101921.44;;;18.76;40.11
62976;BME280;49071;0.000;0.000;2023-05-08T17:17:18;101927.69;;;18.74;39.80
62976;BME280;49071;0.000;0.000;2023-05-08T17:20:18;101918.06;;;18.73;39.61
62976;BME280;49071;0.000;0.000;2023-05-08T17:23:18;101927.72;;;18.72;39.97
62976;BME280;49071;0.000;0.000;2023-05-08T17:26:19;101923.34;;;18.71;40.05
62976;BME280;49071;0.000;0.000;2023-05-08T17:29:20;101925.16;;;18.69;40.08
62976;BME280;49071;0.000;0.000;2023-05-08T17:32:20;101927.78;;;18.69;40.23
62976;BME280;49071;0.000;0.000;2023-05-08T17:35:21;101929.59;;;18.67;40.40
62976;BME280;49071;0.000;0.000;2023-05-08T17:38:22;101932.25;;;18.65;40.45
62976;BME280;49071;0.000;0.000;2023-05-08T17:41:22;101934.88;;;18.65;40.50
62976;BME280;49071;0.000;0.000;2023-05-08T17:44:22;101941.00;;;18.66;40.74
62976;BME280;49071;0.000;0.000;2023-05-08T17:47:22;101939.25;;;18.67;40.71
62976;BME280;49071;0.000;0.000;2023-05-08T17:50:22;101936.56;;;18.68;41.01
62976;BME280;49071;0.000;0.000;2023-05-08T17:53:23;101940.97;;;18.68;41.18
62976;BME280;49071;0.000;0.000;2023-05-08T17:56:23;101935.72;;;18.68;41.04
62976;BME280;49071;0.000;0.000;2023-05-08T17:59:23;101941.91;;;18.65;41.45
62976;BME280;49071;0.000;0.000;2023-05-08T18:02:23;101945.47;;;18.64;41.10
62976;BME280;49071;0.000;0.000;2023-05-08T18:05:23;101950.72;;;18.64;41.40
62976;BME280;49071;0.000;0.000;2023-05-08T18:08:24;101950.75;;;18.62;41.60
62976;BME280;49071;0.000;0.000;2023-05-08T18:11:24;101960.41;;;18.62;41.87
62976;BME280;49071;0.000;0.000;2023-05-08T18:14:27;101959.50;;;18.63;41.92
62976;BME280;49071;0.000;0.000;2023-05-08T18:17:27;101956.91;;;18.61;41.72
62976;BME280;49071;0.000;0.000;2023-05-08T18:20:28;101948.19;;;18.59;42.05
62976;BME280;49071;0.000;0.000;2023-05-08T18:23:28;101960.50;;;18.59;42.01
62976;BME280;49071;0.000;0.000;2023-05-08T18:26:28;101964.84;;;18.60;41.97
62976;BME280;49071;0.000;0.000;2023-05-08T18:29:29;101958.78;;;18.58;42.00
62976;BME280;49071;0.000;0.000;2023-05-08T18:32:29;101964.97;;;18.55;42.08
62976;BME280;49071;0.000;0.000;2023-05-08T18:35:30;101961.47;;;18.56;42.36
62976;BME280;49071;0.000;0.000;2023-05-08T18:38:30;101964.13;;;18.55;42.28
62976;BME280;49071;0.000;0.000;2023-05-08T18:41:31;101970.31;;;18.52;42.13
62976;BME280;49071;0.000;0.000;2023-05-08T18:44:31;101965.06;;;18.52;42.11
62976;BME280;49071;0.000;0.000;2023-05-08T18:47:31;101972.09;;;18.52;42.10
62976;BME280;49071;0.000;0.000;2023-05-08T18:50:31;101969.44;;;18.53;42.23
62976;BME280;49071;0.000;0.000;2023-05-08T18:53:31;101968.66;;;18.50;42.49
62976;BME280;49071;0.000;0.000;2023-05-08T18:56:32;101966.81;;;18.52;42.59
62976;BME280;49071;0.000;0.000;2023-05-08T18:59:33;101973.84;;;18.51;42.55
62976;BME280;49071;0.000;0.000;2023-05-08T19:02:33;101975.56;;;18.52;42.32
62976;BME280;49071;0.000;0.000;2023-05-08T19:05:33;101977.34;;;18.52;42.58
62976;BME280;49071;0.000;0.000;2023-05-08T19:08:34;101981.75;;;18.51;42.50
62976;BME280;49071;0.000;0.000;2023-05-08T19:11:34;101978.28;;;18.49;42.55
62976;BME280;49071;0.000;0.000;2023-05-08T19:14:34;101983.50;;;18.51;42.89
62976;BME280;49071;0.000;0.000;2023-05-08T19:17:34;101985.28;;;18.50;42.43
62976;BME280;49071;0.000;0.000;2023-05-08T19:20:35;101984.41;;;18.50;42.64
62976;BME280;49071;0.000;0.000;2023-05-08T19:23:35;101980.88;;;18.51;43.06
62976;BME280;49071;0.000;0.000;2023-05-08T19:26:36;101982.72;;;18.47;42.43
62976;BME280;49071;0.000;0.000;2023-05-08T19:29:36;101976.72;;;18.44;42.80
62976;BME280;49071;0.000;0.000;2023-05-08T19:32:36;101984.63;;;18.42;42.65
62976;BME280;49071;0.000;0.000;2023-05-08T19:35:36;101974.94;;;18.44;42.66
62976;BME280;49071;0.000;0.000;2023-05-08T19:38:36;101979.28;;;18.45;42.71
62976;BME280;49071;0.000;0.000;2023-05-08T19:41:39;101971.44;;;18.44;43.10
62976;BME280;49071;0.000;0.000;2023-05-08T19:44:39;101978.41;;;18.46;42.94
62976;BME280;49071;0.000;0.000;2023-05-08T19:47:39;101971.41;;;18.45;43.28
62976;BME280;49071;0.000;0.000;2023-05-08T19:50:39;101967.88;;;18.46;43.22
62976;BME280;49071;0.000;0.000;2023-05-08T19:53:39;101965.25;;;18.46;43.28
62976;BME280;49071;0.000;0.000;2023-05-08T19:56:40;101963.50;;;18.45;43.44
62976;BME280;49071;0.000;0.000;2023-05-08T19:59:40;101963.50;;;18.45;43.14
62976;BME280;49071;0.000;0.000;2023-05-08T20:02:40;101963.66;;;18.40;42.88
62976;BME280;49071;0.000;0.000;2023-05-08T20:05:40;101967.31;;;18.35;42.68
